Time;durP1;ratioP1;P1;durP2;ratioP2;P2;SDS_P1;SDS_P2;PMS_P1;PMS_P2;Temp;Humidity;BMP_temperature;BMP_pressure;BME280_temperature;BME280_humidity;BME280_pressure;Samples;Min_cycle;Max_cycle;Signal;HPM_P1;HPM_P2
2022/12/11 00:01:44;;;;;;;31.57;17.47;;;;;;;-2.48;100.00;97568.94;5104218;28;20209;-77
2022/12/11 00:04:10;;;;;;;33.50;19.27;;;;;;;-2.47;100.00;97558.53;5102956;28;20209;-77
2022/12/11 00:06:37;;;;;;;39.03;21.97;;;;;;;-2.45;100.00;97559.34;5104900;28;20193;-77
2022/12/11 00:09:03;;;;;;;34.47;18.33;;;;;;;-2.48;100.00;97558.56;5111111;28;20218;-77
2022/12/11 00:11:30;;;;;;;36.73;20.63;;;;;;;-2.30;100.00;97561.53;5102570;28;20236;-77
2022/12/11 00:13:56;;;;;;;41.00;21.07;;;;;;;-2.28;100.00;97558.91;5103093;28;20215;-77
2022/12/11 00:16:23;;;;;;;38.40;19.50;;;;;;;-2.26;100.00;97559.69;5102577;28;20209;-77
2022/12/11 00:18:51;;;;;;;39.17;20.23;;;;;;;-2.12;100.00;97557.56;5102802;28;20209;-77
2022/12/11 00:21:17;;;;;;;38.97;21.57;;;;;;;-2.02;100.00;97559.81;5102664;28;20217;-77
2022/12/11 00:23:44;;;;;;;39.73;21.90;;;;;;;-1.89;100.00;97563.75;5102854;28;20506;-77
2022/12/11 00:26:14;;;;;;;45.30;23.53;;;;;;;-1.77;100.00;97557.38;5116129;28;20280;-77
2022/12/11 00:28:41;;;;;;;38.57;21.93;;;;;;;-1.66;100.00;97565.69;5116972;28;20262;-77
2022/12/11 00:31:09;;;;;;;36.83;19.87;;;;;;;-1.62;100.00;97556.91;5115787;28;20243;-77
2022/12/11 00:33:35;;;;;;;35.33;19.13;;;;;;;-1.62;100.00;97564.66;5116086;28;20209;-77
2022/12/11 00:36:04;;;;;;;31.73;18.13;;;;;;;-1.59;100.00;97555.06;5108465;28;20202;-78
2022/12/11 00:38:30;;;;;;;39.93;21.63;;;;;;;-1.53;100.00;97556.63;5113878;28;20218;-77
2022/12/11 00:40:58;;;;;;;39.63;22.30;;;;;;;-1.54;100.00;97566.13;5116369;28;20231;-77
2022/12/11 00:43:24;;;;;;;38.03;20.87;;;;;;;-1.45;100.00;97559.81;5116619;28;20262;-77
2022/12/11 00:45:51;;;;;;;33.23;20.27;;;;;;;-1.23;100.00;97551.31;5115853;28;20274;-77
2022/12/11 00:48:17;;;;;;;32.60;18.63;;;;;;;-1.22;100.00;97547.00;5115951;28;20205;-77
2022/12/11 00:50:44;;;;;;;31.40;18.97;;;;;;;-1.23;100.00;97550.47;5116574;28;20230;-77
2022/12/11 00:53:12;;;;;;;32.20;19.87;;;;;;;-1.21;100.00;97539.16;5107270;28;20229;-77
2022/12/11 00:55:40;;;;;;;29.17;18.00;;;;;;;-1.19;100.00;97545.13;5097765;28;20216;-77
2022/12/11 00:58:08;;;;;;;30.53;18.40;;;;;;;-1.18;100.00;97548.59;5097889;28;20218;-77
2022/12/11 01:00:34;;;;;;;29.57;18.03;;;;;;;-1.19;100.00;97544.28;5099125;28;20303;-78
2022/12/11 01:03:01;;;;;;;32.40;19.60;;;;;;;-1.14;100.00;97555.34;5105582;28;20294;-78
2022/12/11 01:05:28;;;;;;;33.90;19.40;;;;;;;-1.09;100.00;97550.88;5111521;28;20205;-77
2022/12/11 01:07:55;;;;;;;31.30;18.73;;;;;;;-1.10;100.00;97556.97;5119238;28;20193;-78
2022/12/11 01:10:26;;;;;;;34.43;19.63;;;;;;;-1.01;100.00;97556.66;5118929;28;20276;-78
2022/12/11 01:12:55;;;;;;;32.13;19.07;;;;;;;-0.86;100.00;97556.16;5119425;28;20233;-78
2022/12/11 01:15:23;;;;;;;30.97;18.87;;;;;;;-0.94;100.00;97569.38;5119544;28;20273;-78
2022/12/11 01:17:50;;;;;;;29.77;17.93;;;;;;;-0.99;100.00;97565.25;5119330;28;20256;-77
2022/12/11 01:20:19;;;;;;;30.53;17.70;;;;;;;-0.93;100.00;97575.41;5118878;28;20252;-78
2022/12/11 01:22:45;;;;;;;29.97;17.13;;;;;;;-0.92;100.00;97579.69;5118757;28;20216;-78
2022/12/11 01:25:12;;;;;;;31.33;17.63;;;;;;;-0.93;100.00;97585.78;5119302;28;20261;-78
2022/12/11 01:27:40;;;;;;;30.90;18.63;;;;;;;-0.91;100.00;97581.38;5119188;28;20258;-78
2022/12/11 01:30:08;;;;;;;32.87;19.90;;;;;;;-0.79;100.00;97586.19;5118819;28;20233;-78
2022/12/11 01:32:36;;;;;;;29.50;17.73;;;;;;;-0.77;100.00;97581.78;5113492;28;20233;-77
2022/12/11 01:35:03;;;;;;;30.10;18.10;;;;;;;-0.78;100.00;97577.50;5101881;28;20223;-77
2022/12/11 01:37:30;;;;;;;27.43;17.27;;;;;;;-0.84;100.00;97572.50;5096934;28;20210;-77
2022/12/11 01:39:56;;;;;;;32.87;18.87;;;;;;;-0.70;100.00;97567.69;5096501;28;20249;-77
2022/12/11 01:42:24;;;;;;;29.00;18.27;;;;;;;-0.68;100.00;97576.28;5096181;28;20654;-77
2022/12/11 01:45:26;;;;;;;26.87;16.40;;;;;;;-0.74;100.00;97571.31;5096951;28;20209;-77
2022/12/11 01:47:56;;;;;;;24.83;16.27;;;;;;;-0.74;100.00;97571.31;5053731;28;20234;-77
2022/12/11 01:50:24;;;;;;;28.27;16.10;;;;;;;-0.78;100.00;97574.91;5100243;28;20237;-77
2022/12/11 01:52:51;;;;;;;29.57;17.87;;;;;;;-0.81;100.00;97580.19;5109772;28;20298;-77
2022/12/11 01:55:17;;;;;;;27.03;15.60;;;;;;;-0.78;100.00;97585.28;5107745;28;20214;-77
2022/12/11 01:57:47;;;;;;;31.20;17.90;;;;;;;-0.68;100.00;97586.66;5104613;28;20221;-77
2022/12/11 02:00:15;;;;;;;27.90;17.43;;;;;;;-0.65;100.00;97589.13;5109885;28;20214;-77
2022/12/11 02:02:43;;;;;;;28.27;16.70;;;;;;;-0.66;100.00;97584.84;5102241;28;20198;-78
2022/12/11 02:05:10;;;;;;;27.17;16.93;;;;;;;-0.58;100.00;97588.03;5097092;28;20240;-78
2022/12/11 02:07:39;;;;;;;29.17;16.80;;;;;;;-0.66;100.00;97590.06;5096866;28;20210;-77
2022/12/11 02:10:08;;;;;;;26.17;16.43;;;;;;;-0.76;100.00;97584.31;5096451;28;20231;-78
2022/12/11 02:12:39;;;;;;;26.17;16.80;;;;;;;-0.82;100.00;97587.13;5096563;28;20230;-77
2022/12/11 02:15:15;;;;;;;28.93;17.20;;;;;;;-0.78;100.00;97586.13;5096404;28;20216;-77
2022/12/11 02:17:48;;;;;;;25.13;16.17;;;;;;;-0.80;100.00;97602.63;5096129;28;20217;-77
2022/12/11 02:20:22;;;;;;;29.60;17.70;;;;;;;-0.82;100.00;97597.50;5096167;28;20244;-77
2022/12/11 02:23:06;;;;;;;28.90;16.83;;;;;;;-0.81;100.00;97595.75;5095874;28;20659;-77
2022/12/11 02:25:39;;;;;;;27.30;16.53;;;;;;;-0.75;100.00;97593.78;5096184;28;20211;-77
2022/12/11 02:28:17;;;;;;;32.00;18.43;;;;;;;-0.68;100.00;97584.06;5095786;28;20210;-77
2022/12/11 02:30:48;;;;;;;26.33;17.37;;;;;;;-0.74;100.00;97574.72;5101975;28;20732;-77
2022/12/11 02:33:16;;;;;;;29.83;17.47;;;;;;;-0.78;100.00;97578.34;5098358;28;20227;-77
2022/12/11 02:35:45;;;;;;;31.90;18.57;;;;;;;-0.74;100.00;97573.91;5097569;28;20209;-77
2022/12/11 02:38:17;;;;;;;27.20;17.90;;;;;;;-0.76;100.00;97567.91;5098254;28;20414;-77
2022/12/11 02:40:47;;;;;;;31.27;18.60;;;;;;;-0.65;100.00;97565.78;5097731;28;20230;-77
2022/12/11 02:43:17;;;;;;;25.97;16.50;;;;;;;-0.72;100.00;97565.16;5098393;28;20207;-77
2022/12/11 02:45:46;;;;;;;27.20;17.50;;;;;;;-0.78;100.00;97570.56;5097354;28;20296;-77
2022/12/11 02:48:15;;;;;;;27.47;16.27;;;;;;;-0.80;100.00;97572.34;5095931;28;20217;-77
2022/12/11 02:50:46;;;;;;;31.63;18.33;;;;;;;-0.74;100.00;97571.31;5095190;28;20226;-77
2022/12/11 02:53:16;;;;;;;25.23;16.87;;;;;;;-0.70;100.00;97571.16;5095069;28;20233;-77
2022/12/11 02:55:44;;;;;;;29.03;17.10;;;;;;;-0.66;100.00;97574.47;5095829;28;20500;-77
2022/12/11 02:58:18;;;;;;;29.50;16.90;;;;;;;-0.62;100.00;97576.09;5103808;28;20217;-77
2022/12/11 03:00:45;;;;;;;25.90;15.77;;;;;;;-0.57;100.00;97576.78;5110031;28;20227;-78
2022/12/11 03:03:12;;;;;;;24.50;15.33;;;;;;;-0.61;100.00;97567.38;5116785;28;20254;-77
2022/12/11 03:05:39;;;;;;;28.63;15.97;;;;;;;-0.56;100.00;97568.09;5116586;28;20201;-77
2022/12/11 03:08:05;;;;;;;24.40;15.77;;;;;;;-0.56;100.00;97570.69;5117178;28;20224;-77
2022/12/11 03:10:32;;;;;;;24.83;15.80;;;;;;;-0.46;100.00;97567.72;5116610;28;20286;-77
2022/12/11 03:13:00;;;;;;;21.37;13.93;;;;;;;-0.46;100.00;97556.47;5116612;28;20234;-77
2022/12/11 03:15:38;;;;;;;21.83;13.80;;;;;;;-0.46;100.00;97566.84;5106744;28;20210;-77
2022/12/11 03:18:10;;;;;;;21.67;13.17;;;;;;;-0.48;100.00;97561.72;5094304;28;20209;-77
2022/12/11 03:20:41;;;;;;;22.23;13.43;;;;;;;-0.44;100.00;97557.28;5094439;28;20226;-77
2022/12/11 03:23:16;;;;;;;22.00;13.97;;;;;;;-0.46;100.00;97551.28;5094442;28;20213;-77
2022/12/11 03:25:52;;;;;;;20.13;13.50;;;;;;;-0.45;100.00;97553.81;5099219;28;20210;-77
2022/12/11 03:28:24;;;;;;;20.43;13.10;;;;;;;-0.41;100.00;97558.03;5097657;28;20217;-77
2022/12/11 03:30:54;;;;;;;20.13;13.07;;;;;;;-0.42;100.00;97558.94;5104753;28;20638;-77
2022/12/11 03:33:25;;;;;;;23.53;14.03;;;;;;;-0.43;100.00;97556.38;5103876;28;20232;-77
2022/12/11 03:35:55;;;;;;;23.30;15.23;;;;;;;-0.42;100.00;97563.25;5102195;28;20213;-77
2022/12/11 03:38:25;;;;;;;22.07;13.37;;;;;;;-0.40;100.00;97561.44;5094434;28;20210;-77
2022/12/11 03:40:54;;;;;;;21.43;13.00;;;;;;;-0.40;100.00;97557.13;5091013;28;20223;-77
2022/12/11 03:43:22;;;;;;;21.53;13.47;;;;;;;-0.32;100.00;97554.25;5091122;28;20206;-77
2022/12/11 03:45:51;;;;;;;22.30;13.33;;;;;;;-0.38;100.00;97544.09;5091132;28;20213;-78
2022/12/11 03:48:21;;;;;;;19.77;12.67;;;;;;;-0.39;100.00;97542.41;5091282;28;20545;-77
2022/12/11 03:50:49;;;;;;;20.00;12.73;;;;;;;-0.43;100.00;97551.19;5090786;28;20248;-77
2022/12/11 03:53:16;;;;;;;22.37;13.77;;;;;;;-0.35;100.00;97549.16;5090980;28;20237;-77
2022/12/11 03:55:43;;;;;;;18.97;12.53;;;;;;;-0.37;100.00;97556.16;5090940;28;20210;-77
2022/12/11 03:58:10;;;;;;;20.50;13.03;;;;;;;-0.45;100.00;97553.81;5090967;28;20696;-77
2022/12/11 04:00:37;;;;;;;19.73;12.83;;;;;;;-0.46;100.00;97556.47;5090431;28;20230;-77
2022/12/11 04:03:12;;;;;;;20.47;13.50;;;;;;;-0.48;100.00;97553.94;5090763;28;20206;-77
2022/12/11 04:05:41;;;;;;;25.60;14.97;;;;;;;-0.51;100.00;97553.22;5090884;28;20681;-77
2022/12/11 04:08:08;;;;;;;22.37;13.87;;;;;;;-0.51;100.00;97553.22;5091111;28;20199;-77
2022/12/11 04:10:34;;;;;;;24.03;14.00;;;;;;;-0.57;100.00;97543.03;5090332;28;20238;-77
2022/12/11 04:13:01;;;;;;;23.00;14.07;;;;;;;-0.52;100.00;97541.09;5090759;28;20225;-78
2022/12/11 04:15:26;;;;;;;24.63;15.63;;;;;;;-0.62;100.00;97545.78;5091108;28;20577;-78
2022/12/11 04:26:15;;;;;;;26.63;15.90;;;;;;;-0.64;100.00;97526.81;5094535;28;20319;-77
2022/12/11 04:28:43;;;;;;;24.00;14.93;;;;;;;-0.66;100.00;97522.59;5094661;28;20228;-77
2022/12/11 04:31:12;;;;;;;27.53;16.33;;;;;;;-0.65;100.00;97527.72;5094196;28;20621;-77
2022/12/11 04:33:38;;;;;;;21.27;13.93;;;;;;;-0.71;100.00;97525.34;5094251;28;20292;-77
2022/12/11 04:36:05;;;;;;;23.57;14.30;;;;;;;-0.75;100.00;97517.72;5094132;28;20609;-77
2022/12/11 04:38:33;;;;;;;24.67;15.23;;;;;;;-0.78;100.00;97517.81;5094108;28;20225;-77
2022/12/11 04:41:00;;;;;;;26.87;16.40;;;;;;;-0.77;100.00;97514.31;5094021;28;20238;-77
2022/12/11 04:43:27;;;;;;;27.00;16.67;;;;;;;-0.74;100.00;97519.44;5094258;28;20207;-77
2022/12/11 04:46:01;;;;;;;27.10;16.57;;;;;;;-0.80;100.00;97530.00;5094048;28;20211;-77
2022/12/11 04:48:27;;;;;;;23.97;15.37;;;;;;;-0.69;100.00;97540.88;5094103;28;20211;-77
2022/12/11 04:50:54;;;;;;;23.43;15.30;;;;;;;-0.73;100.00;97529.75;5093901;28;20249;-77
2022/12/11 04:53:20;;;;;;;25.53;16.03;;;;;;;-0.79;100.00;97539.47;5093956;28;20237;-77
2022/12/11 04:55:48;;;;;;;23.97;14.20;;;;;;;-0.82;100.00;97531.78;5093978;28;20210;-77
2022/12/11 04:58:15;;;;;;;26.57;17.37;;;;;;;-0.77;100.00;97529.88;5093826;28;20224;-77
2022/12/11 05:00:41;;;;;;;27.73;17.50;;;;;;;-0.70;100.00;97533.97;5093320;28;20226;-77
2022/12/11 05:03:08;;;;;;;24.23;15.27;;;;;;;-0.78;100.00;97538.56;5094169;28;20209;-77
2022/12/11 05:05:35;;;;;;;20.87;14.20;;;;;;;-0.79;100.00;97529.97;5093973;28;20233;-77
2022/12/11 05:08:01;;;;;;;21.60;13.93;;;;;;;-0.88;100.00;97529.41;5093755;28;20230;-77
2022/12/11 05:10:28;;;;;;;23.07;15.07;;;;;;;-0.96;100.00;97519.31;5091198;22;20237;-84
2022/12/11 05:12:56;;;;;;;21.23;13.90;;;;;;;-1.07;100.00;97526.59;5053385;28;20232;-84
2022/12/11 05:15:23;;;;;;;26.93;16.10;;;;;;;-1.08;100.00;97537.00;5053395;28;20207;-84
2022/12/11 05:17:49;;;;;;;25.93;15.87;;;;;;;-1.08;100.00;97535.28;5053198;28;20216;-84
2022/12/11 05:20:16;;;;;;;24.40;14.73;;;;;;;-1.23;100.00;97540.13;5052912;28;20235;-84
2022/12/11 05:22:43;;;;;;;24.53;14.83;;;;;;;-1.47;100.00;97546.06;5053195;28;20676;-84
2022/12/11 05:25:09;;;;;;;24.67;14.97;;;;;;;-1.61;100.00;97558.63;5053164;28;20217;-84
2022/12/11 05:27:36;;;;;;;26.33;16.53;;;;;;;-1.71;100.00;97558.03;5052721;28;20218;-84
2022/12/11 05:30:05;;;;;;;23.97;14.60;;;;;;;-1.73;100.00;97551.22;5052691;28;20230;-84
2022/12/11 05:32:31;;;;;;;25.93;16.33;;;;;;;-1.75;100.00;97553.84;5055953;28;20625;-83
2022/12/11 05:34:58;;;;;;;25.43;14.43;;;;;;;-1.76;100.00;97552.16;5053031;28;20242;-84
2022/12/11 05:37:24;;;;;;;30.57;17.97;;;;;;;-1.71;100.00;97542.47;5053107;28;20242;-84
2022/12/11 05:39:50;;;;;;;25.80;16.80;;;;;;;-1.83;100.00;97545.44;5052745;28;20311;-84
2022/12/11 05:42:17;;;;;;;30.47;17.13;;;;;;;-1.93;100.00;97535.41;5053250;28;20588;-84
2022/12/11 05:44:43;;;;;;;29.97;18.20;;;;;;;-1.89;100.00;97547.38;5052740;28;20207;-83
2022/12/11 05:47:11;;;;;;;30.73;17.30;;;;;;;-2.06;100.00;97552.19;5053022;28;20580;-85
2022/12/11 05:49:38;;;;;;;30.57;17.23;;;;;;;-2.14;100.00;97551.59;5052614;28;20228;-84
2022/12/11 05:52:05;;;;;;;30.80;17.57;;;;;;;-2.24;100.00;97544.97;5052762;28;20309;-85
2022/12/11 05:54:31;;;;;;;31.33;17.67;;;;;;;-2.28;100.00;97545.97;5052827;28;20598;-84
2022/12/11 05:56:58;;;;;;;34.93;18.33;;;;;;;-2.32;100.00;97546.94;5052655;28;20217;-84
2022/12/11 05:59:24;;;;;;;30.80;18.90;;;;;;;-2.36;100.00;97543.56;5052091;28;20224;-84
2022/12/11 06:01:51;;;;;;;30.27;18.20;;;;;;;-2.43;100.00;97544.66;5052754;28;20214;-84
2022/12/11 06:04:18;;;;;;;35.77;17.87;;;;;;;-2.50;100.00;97542.25;5052356;28;20206;-84
2022/12/11 06:06:45;;;;;;;31.30;16.90;;;;;;;-2.58;100.00;97539.88;5052483;28;20230;-84
2022/12/11 06:09:13;;;;;;;39.27;20.70;;;;;;;-2.63;100.00;97530.56;5051983;28;20217;-84
2022/12/11 06:11:40;;;;;;;38.13;20.57;;;;;;;-2.61;100.00;97526.19;5052235;28;20217;-83
2022/12/11 06:14:06;;;;;;;40.30;20.27;;;;;;;-2.64;100.00;97534.03;5052062;28;20235;-84
2022/12/11 06:16:33;;;;;;;35.20;18.60;;;;;;;-2.66;100.00;97522.88;5052586;28;20203;-83
2022/12/11 06:18:59;;;;;;;32.60;18.53;;;;;;;-2.64;100.00;97523.69;5052020;28;20214;-84
2022/12/11 06:21:29;;;;;;;38.63;20.60;;;;;;;-2.71;100.00;97532.47;5052250;28;20230;-84
2022/12/11 06:23:58;;;;;;;34.23;18.50;;;;;;;-2.71;100.00;97522.13;5052229;28;20216;-85
2022/12/11 06:26:25;;;;;;;33.80;18.47;;;;;;;-2.73;100.00;97523.94;5052182;28;20214;-84
2022/12/11 06:28:53;;;;;;;35.40;18.93;;;;;;;-2.77;100.00;97527.47;5052073;28;20208;-83
2022/12/11 06:31:20;;;;;;;37.50;20.40;;;;;;;-2.81;100.00;97520.72;5052182;28;20221;-83
2022/12/11 06:33:47;;;;;;;39.50;20.70;;;;;;;-2.70;100.00;97523.84;5051985;28;20234;-83
2022/12/11 06:36:15;;;;;;;33.77;18.90;;;;;;;-2.59;100.00;97524.38;5052162;28;20213;-83
2022/12/11 06:38:44;;;;;;;38.07;20.60;;;;;;;-2.55;100.00;97513.06;5051911;28;20585;-84
2022/12/11 06:41:11;;;;;;;32.50;18.30;;;;;;;-2.47;100.00;97511.13;5051798;28;20652;-84
2022/12/11 06:43:39;;;;;;;42.77;20.97;;;;;;;-2.41;100.00;97510.94;5052332;28;20210;-84
2022/12/11 06:46:07;;;;;;;37.10;19.63;;;;;;;-2.38;100.00;97518.63;5052363;28;20262;-84
2022/12/11 06:48:33;;;;;;;36.87;19.33;;;;;;;-2.33;100.00;97516.78;5052378;28;20210;-85
2022/12/11 06:51:05;;;;;;;37.43;20.13;;;;;;;-2.30;100.00;97524.44;5053180;28;20222;-84
2022/12/11 06:53:31;;;;;;;37.97;19.87;;;;;;;-2.27;100.00;97524.34;5056812;28;20230;-84
2022/12/11 06:56:03;;;;;;;36.77;19.97;;;;;;;-2.30;100.00;97529.59;5058514;28;20233;-83
2022/12/11 06:58:30;;;;;;;38.73;20.33;;;;;;;-2.30;100.00;97529.59;5057080;28;20602;-83
2022/12/11 07:00:57;;;;;;;36.53;20.00;;;;;;;-2.26;100.00;97531.22;5054277;28;20238;-84
2022/12/11 07:03:23;;;;;;;35.47;19.40;;;;;;;-2.20;100.00;97536.22;5051834;28;20203;-83
2022/12/11 07:05:50;;;;;;;40.03;22.30;;;;;;;-2.10;100.00;97548.00;5051519;28;20211;-83
2022/12/11 07:08:16;;;;;;;38.33;20.70;;;;;;;-2.01;100.00;97553.78;5051975;28;20218;-84
2022/12/11 07:10:43;;;;;;;37.77;19.53;;;;;;;-1.96;100.00;97554.47;5051019;28;20250;-84
2022/12/11 07:13:10;;;;;;;39.47;21.33;;;;;;;-1.91;100.00;97549.19;5051391;28;20389;-84
2022/12/11 07:15:37;;;;;;;37.00;20.73;;;;;;;-1.79;100.00;97549.66;5051664;28;20207;-84
2022/12/11 07:18:04;;;;;;;39.73;21.03;;;;;;;-1.69;100.00;97555.38;5051346;28;20210;-84
2022/12/11 07:20:30;;;;;;;38.27;20.93;;;;;;;-1.62;100.00;97551.72;5050910;28;20299;-83
2022/12/11 07:22:57;;;;;;;35.13;19.30;;;;;;;-1.59;100.00;97551.63;5051582;28;20210;-83
2022/12/11 07:25:23;;;;;;;36.40;21.37;;;;;;;-1.61;100.00;97541.31;5051684;28;20547;-83
2022/12/11 07:27:50;;;;;;;34.60;20.63;;;;;;;-1.55;100.00;97548.91;5051293;28;20223;-83
2022/12/11 07:30:18;;;;;;;32.60;18.93;;;;;;;-1.52;100.00;97547.97;5050860;28;20239;-83
2022/12/11 07:32:44;;;;;;;33.57;18.47;;;;;;;-1.43;100.00;97547.66;5051151;28;20237;-84
2022/12/11 07:35:11;;;;;;;34.40;20.10;;;;;;;-1.41;100.00;97557.06;5050927;28;20712;-84
2022/12/11 07:37:40;;;;;;;34.30;19.20;;;;;;;-1.37;100.00;97557.81;5051292;28;20214;-84
2022/12/11 07:40:08;;;;;;;31.67;17.87;;;;;;;-1.41;100.00;97551.06;5050777;28;20241;-84
2022/12/11 07:42:35;;;;;;;28.70;17.37;;;;;;;-1.37;100.00;97547.47;5051733;28;20206;-84
2022/12/11 07:45:01;;;;;;;32.50;18.93;;;;;;;-1.31;100.00;97544.69;5051064;28;20206;-84
2022/12/11 07:47:29;;;;;;;29.40;17.40;;;;;;;-1.21;100.00;97543.50;5051033;28;20280;-84
2022/12/11 07:49:56;;;;;;;29.40;17.50;;;;;;;-1.14;100.00;97547.56;5050520;28;20234;-84
2022/12/11 07:52:22;;;;;;;26.17;17.30;;;;;;;-1.12;100.00;97546.63;5054316;28;20211;-83
2022/12/11 07:54:49;;;;;;;28.10;17.53;;;;;;;-1.09;100.00;97538.78;5055481;28;20228;-84
2022/12/11 07:57:15;;;;;;;30.23;17.13;;;;;;;-1.08;100.00;97535.28;5055346;28;20207;-83
2022/12/11 07:59:42;;;;;;;28.60;18.33;;;;;;;-1.04;100.00;97546.38;5054738;28;20234;-84
2022/12/11 08:02:10;;;;;;;30.00;17.83;;;;;;;-0.91;100.00;97537.31;5054771;28;20216;-84
2022/12/11 08:04:38;;;;;;;29.47;18.53;;;;;;;-0.80;100.00;97540.38;5054962;28;20221;-84
2022/12/11 08:07:05;;;;;;;27.00;15.40;;;;;;;-0.86;100.00;97545.78;5055180;28;20204;-83
2022/12/11 08:09:31;;;;;;;27.73;15.20;;;;;;;-0.79;100.00;97540.34;5054283;28;20228;-85
2022/12/11 08:11:58;;;;;;;30.43;17.57;;;;;;;-0.75;100.00;97538.50;5054732;28;20208;-84
2022/12/11 08:14:24;;;;;;;28.10;16.93;;;;;;;-0.74;100.00;97535.81;5054524;28;20608;-85
2022/12/11 08:16:51;;;;;;;31.30;17.23;;;;;;;-0.76;100.00;97531.56;5054440;28;20218;-84
2022/12/11 08:19:17;;;;;;;31.33;17.57;;;;;;;-0.74;100.00;97529.81;5054142;28;20679;-85
2022/12/11 08:21:45;;;;;;;31.20;17.93;;;;;;;-0.76;100.00;97526.38;5054458;28;20677;-85
2022/12/11 08:24:15;;;;;;;29.43;17.43;;;;;;;-0.78;100.00;97533.38;5054862;28;20239;-84
2022/12/11 08:26:41;;;;;;;29.17;17.07;;;;;;;-0.80;100.00;97536.03;5054377;28;20210;-85
2022/12/11 08:29:08;;;;;;;31.53;17.97;;;;;;;-0.81;100.00;97538.69;5054378;28;20675;-85
2022/12/11 08:31:34;;;;;;;28.83;15.80;;;;;;;-0.80;100.00;97540.38;5054646;28;20319;-84
2022/12/11 08:34:01;;;;;;;31.50;17.23;;;;;;;-0.81;100.00;97539.53;5054284;28;20238;-85
2022/12/11 08:36:28;;;;;;;31.40;17.50;;;;;;;-0.80;100.00;97540.38;5054391;28;20228;-85
2022/12/11 08:38:56;;;;;;;30.07;16.63;;;;;;;-0.77;100.00;97542.84;5053910;28;20668;-85
2022/12/11 08:41:26;;;;;;;29.00;16.67;;;;;;;-0.73;100.00;97541.88;5054099;28;20227;-84
2022/12/11 08:43:53;;;;;;;27.10;15.77;;;;;;;-0.72;100.00;97543.56;5054108;28;20206;-85
2022/12/11 08:46:22;;;;;;;25.40;16.53;;;;;;;-0.70;100.00;97541.75;5054414;28;20671;-84
2022/12/11 08:48:49;;;;;;;30.47;18.10;;;;;;;-0.68;100.00;97545.16;5053781;28;20265;-86
2022/12/11 08:51:18;;;;;;;31.73;18.20;;;;;;;-0.58;100.00;97547.38;5054230;28;20228;-85
2022/12/11 08:53:45;;;;;;;28.63;18.57;;;;;;;-0.46;100.00;97540.91;5054624;28;20208;-81
2022/12/11 08:56:16;;;;;;;32.67;19.80;;;;;;;-0.36;100.00;97539.69;5054589;28;20292;-89
2022/12/11 08:58:42;;;;;;;30.07;18.37;;;;;;;-0.34;100.00;97537.88;5055107;28;20203;-89
2022/12/11 09:01:11;;;;;;;26.90;16.60;;;;;;;-0.38;100.00;97539.72;5056604;28;20232;-89
2022/12/11 09:03:38;;;;;;;29.53;17.37;;;;;;;-0.34;100.00;97528.34;5055754;28;20289;-91
2022/12/11 09:06:06;;;;;;;28.57;16.73;;;;;;;-0.33;100.00;97526.59;5055601;28;20208;-84
2022/12/11 09:08:33;;;;;;;29.90;17.53;;;;;;;-0.37;100.00;97530.19;5054112;28;20207;-85
2022/12/11 09:11:03;;;;;;;30.50;18.97;;;;;;;-0.25;100.00;97529.75;5055575;28;20244;-89
2022/12/11 09:13:31;;;;;;;27.50;17.90;;;;;;;-0.22;100.00;97526.13;5056530;28;20215;-87
2022/12/11 09:15:58;;;;;;;28.10;17.20;;;;;;;-0.27;100.00;97524.63;5059165;28;20231;-87
2022/12/11 09:18:25;;;;;;;26.43;16.00;;;;;;;-0.30;100.00;97527.34;5064319;28;20202;-84
2022/12/11 09:20:58;;;;;;;25.87;15.93;;;;;;;-0.30;100.00;97526.47;5060226;28;20228;-87
2022/12/11 09:23:25;;;;;;;26.00;15.77;;;;;;;-0.27;100.00;97516.81;5056022;28;20219;-82
2022/12/11 09:25:51;;;;;;;28.33;18.10;;;;;;;-0.17;100.00;97517.34;5053491;28;20204;-81
2022/12/11 09:28:18;;;;;;;28.37;17.60;;;;;;;-0.18;100.00;97515.66;5053532;28;20208;-82
2022/12/11 09:30:46;;;;;;;28.83;17.57;;;;;;;-0.26;100.00;97518.50;5052855;28;20263;-81
2022/12/11 09:33:13;;;;;;;30.40;17.33;;;;;;;-0.18;100.00;97520.84;5053285;28;20208;-79
2022/12/11 09:35:39;;;;;;;27.50;18.00;;;;;;;-0.08;100.00;97513.50;5053626;28;20231;-84
2022/12/11 09:38:06;;;;;;;30.90;18.47;;;;;;;-0.05;100.00;97513.38;5053691;28;20208;-84
2022/12/11 09:40:33;;;;;;;24.73;16.47;;;;;;;0.01;100.00;97513.16;5053096;28;20224;-82
2022/12/11 09:43:06;;;;;;;22.67;15.10;;;;;;;0.02;100.00;97504.44;5053996;28;20218;-87
2022/12/11 09:45:33;;;;;;;28.43;16.33;;;;;;;0.05;100.00;97503.50;5052010;28;20200;-86
2022/12/11 09:48:02;;;;;;;24.50;15.63;;;;;;;0.03;100.00;97498.38;5052250;28;20210;-86
2022/12/11 09:50:32;;;;;;;23.37;14.83;;;;;;;-0.02;100.00;97492.50;5052655;28;20781;-89
2022/12/11 09:53:07;;;;;;;25.70;14.87;;;;;;;-0.04;100.00;97494.28;5053507;28;20220;-83
2022/12/11 09:55:41;;;;;;;25.17;14.80;;;;;;;0.02;100.00;97491.47;5053283;28;20228;-84
2022/12/11 09:58:18;;;;;;;23.13;14.33;;;;;;;0.03;100.00;97482.78;5054302;28;20218;-86
2022/12/11 10:00:48;;;;;;;23.50;14.40;;;;;;;0.07;100.00;97481.75;5055437;28;20220;-86
2022/12/11 10:03:40;;;;;;;22.33;14.80;;;;;;;0.07;100.00;97481.75;5054743;28;20215;-86
2022/12/11 10:06:15;;;;;;;22.90;14.33;;;;;;;0.07;100.00;97480.91;5053396;28;20215;-82
2022/12/11 10:08:53;;;;;;;20.97;13.13;;;;;;;0.11;100.00;97482.47;5053924;28;20771;-90
2022/12/11 10:11:38;;;;;;;23.80;14.30;;;;;;;0.21;100.00;97483.81;5055045;28;20242;-84
2022/12/11 10:14:13;;;;;;;22.30;12.93;;;;;;;0.23;100.00;97482.84;5065064;28;20589;-83
2022/12/11 10:16:43;;;;;;;23.17;14.83;;;;;;;0.25;100.00;97486.22;5061606;28;20239;-82
2022/12/11 10:19:16;;;;;;;20.47;13.20;;;;;;;0.32;100.00;97481.66;5056613;28;20216;-85
2022/12/11 10:21:43;;;;;;;21.40;13.87;;;;;;;0.38;100.00;97477.03;5053493;28;20214;-84
2022/12/11 10:24:18;;;;;;;19.60;13.37;;;;;;;0.42;100.00;97475.16;5054510;28;20216;-87
2022/12/11 10:26:46;;;;;;;22.97;14.07;;;;;;;0.48;100.00;97467.13;5052710;28;20203;-89
2022/12/11 10:29:15;;;;;;;20.47;13.17;;;;;;;0.42;100.00;97457.84;5052467;28;20211;-83
2022/12/11 10:31:49;;;;;;;25.60;14.10;;;;;;;0.46;100.00;97448.16;5052587;28;20208;-84
2022/12/11 10:34:24;;;;;;;23.70;14.33;;;;;;;0.38;100.00;97445.84;5051430;28;20211;-86
2022/12/11 10:36:50;;;;;;;24.63;15.17;;;;;;;0.40;100.00;97446.66;5052758;28;20219;-85
2022/12/11 10:39:19;;;;;;;23.63;14.73;;;;;;;0.42;100.00;97444.84;5051147;28;20211;-85
2022/12/11 10:41:47;;;;;;;22.93;14.33;;;;;;;0.39;100.00;97441.53;5051689;28;20219;-85
2022/12/11 10:44:17;;;;;;;22.13;14.50;;;;;;;0.44;100.00;97445.59;5050966;28;20326;-85
2022/12/11 10:46:43;;;;;;;20.50;13.90;;;;;;;0.50;100.00;97450.56;5051392;28;20212;-83
2022/12/11 10:49:24;;;;;;;24.20;15.07;;;;;;;0.51;100.00;97441.03;5051378;28;20208;-84
2022/12/11 10:51:52;;;;;;;23.53;13.33;;;;;;;0.51;100.00;97441.84;5050790;28;20212;-85
2022/12/11 10:54:30;;;;;;;25.53;14.70;;;;;;;0.53;100.00;97437.47;5051718;28;20293;-85
2022/12/11 10:56:58;;;;;;;27.93;16.10;;;;;;;0.66;100.00;97428.25;5050647;28;20208;-83
2022/12/11 10:59:32;;;;;;;23.47;14.47;;;;;;;0.71;100.00;97435.84;5051074;28;20668;-82
2022/12/11 11:02:00;;;;;;;24.80;15.70;;;;;;;0.71;100.00;97428.03;5050754;28;20294;-85
2022/12/11 11:04:32;;;;;;;24.80;16.50;;;;;;;0.71;100.00;97421.09;5051605;28;20208;-85
2022/12/11 11:07:03;;;;;;;24.03;15.27;;;;;;;0.65;100.00;97426.56;5051811;28;20210;-84
2022/12/11 11:09:31;;;;;;;25.93;15.00;;;;;;;0.66;100.00;97430.84;5051161;28;20212;-81
2022/12/11 11:11:58;;;;;;;23.73;14.80;;;;;;;0.64;100.00;97426.59;5102938;22;20230;-80
2022/12/11 11:14:24;;;;;;;20.47;13.10;;;;;;;0.63;100.00;97424.94;5091385;28;20560;-81
2022/12/11 11:16:55;;;;;;;20.93;12.57;;;;;;;0.62;100.00;97425.84;5091464;28;20207;-81
2022/12/11 11:19:25;;;;;;;20.87;12.40;;;;;;;0.62;100.00;97421.47;5090874;28;20209;-80
2022/12/11 11:21:57;;;;;;;25.17;14.07;;;;;;;0.59;100.00;97419.00;5091207;28;20594;-81
2022/12/11 11:24:28;;;;;;;23.13;14.07;;;;;;;0.61;100.00;97418.94;5090955;28;20214;-83